createdAt,value
2019-04-05T00:01:46.033Z,99527.37
2019-04-05T00:07:10.871Z,99530.80
2019-04-05T00:12:35.550Z,99538.39
2019-04-05T00:17:59.229Z,99538.91
2019-04-05T00:23:23.626Z,99543.67
2019-04-05T00:28:51.568Z,99540.52
2019-04-05T00:34:14.731Z,99535.20
2019-04-05T00:39:38.658Z,99534.94
2019-04-05T00:45:03.508Z,99544.46
2019-04-05T00:50:27.371Z,99543.97
2019-04-05T00:55:51.490Z,99546.41
2019-04-05T01:01:16.364Z,99548.82
2019-04-05T01:06:41.041Z,99553.34
2019-04-05T01:12:05.873Z,99560.37
2019-04-05T01:17:30.255Z,99563.96
2019-04-05T01:22:55.455Z,99569.75
2019-04-05T01:28:19.884Z,99580.62
2019-04-05T01:33:44.758Z,99579.78
2019-04-05T01:39:09.577Z,99589.55
2019-04-05T01:44:34.040Z,99587.70
2019-04-05T01:49:57.449Z,99594.93
2019-04-05T01:55:22.239Z,99596.34
2019-04-05T02:00:47.407Z,99604.05
2019-04-05T02:06:11.893Z,99608.87
2019-04-05T02:11:36.450Z,99612.04
2019-04-05T02:17:00.935Z,99610.55
2019-04-05T02:22:25.942Z,99607.05
2019-04-05T02:27:49.579Z,99612.50
2019-04-05T02:33:13.561Z,99605.40
2019-04-05T02:38:38.597Z,99606.22
2019-04-05T02:44:03.477Z,99607.47
2019-04-05T02:49:30.403Z,99603.93
2019-04-05T02:54:55.205Z,99608.62
2019-04-05T03:00:20.282Z,99604.75
2019-04-05T03:05:46.821Z,99607.04
2019-04-05T03:11:14.039Z,99613.04
2019-04-05T03:16:42.256Z,99614.39
2019-04-05T03:22:09.184Z,99621.27
2019-04-05T03:27:37.044Z,99630.03
2019-04-05T03:33:00.881Z,99632.53
2019-04-05T03:38:25.832Z,99644.79
2019-04-05T03:43:50.868Z,99642.52
2019-04-05T03:49:14.577Z,99639.97
2019-04-05T03:54:38.684Z,99654.59
2019-04-05T04:00:03.895Z,99658.97
2019-04-05T04:05:29.545Z,99656.38
2019-04-05T04:10:55.183Z,99670.11
2019-04-05T04:16:20.330Z,99672.16
2019-04-05T04:22:04.779Z,99676.42
2019-04-05T04:27:29.896Z,99681.13
2019-04-05T04:32:54.877Z,99692.81
2019-04-05T04:38:19.435Z,99704.52
2019-04-05T04:43:44.965Z,99718.04
2019-04-05T04:49:10.054Z,99731.16
2019-04-05T04:54:34.836Z,99744.47
2019-04-05T05:00:00.163Z,99739.48
2019-04-05T05:05:23.868Z,99748.39
2019-04-05T05:10:48.478Z,99754.03
2019-04-05T05:16:13.600Z,99756.27
2019-04-05T05:21:37.650Z,99753.48
2019-04-05T05:27:01.949Z,99760.84
2019-04-05T05:32:26.581Z,99761.98
2019-04-05T05:37:51.324Z,99762.91
2019-04-05T05:43:16.172Z,99778.27
2019-04-05T05:48:41.145Z,99803.06
2019-04-05T05:54:05.667Z,99815.98
2019-04-05T05:59:30.826Z,99821.09
2019-04-05T06:04:55.186Z,99829.16
2019-04-05T06:10:19.678Z,99841.54
2019-04-05T06:15:44.177Z,99842.61
2019-04-05T06:21:09.102Z,99851.95
2019-04-05T06:26:34.131Z,99862.83
2019-04-05T06:31:58.087Z,99871.88
2019-04-05T06:37:21.739Z,99872.56
2019-04-05T06:42:46.278Z,99885.05
2019-04-05T06:48:18.936Z,99885.83
2019-04-05T06:53:35.740Z,99887.09
2019-04-05T06:58:59.380Z,99900.95
2019-04-05T07:04:24.455Z,99901.64
2019-04-05T07:09:48.858Z,99905.96
2019-04-05T07:15:13.596Z,99904.18
2019-04-05T07:20:38.406Z,99912.23
2019-04-05T07:26:02.610Z,99922.78
2019-04-05T07:31:27.250Z,99934.17
2019-04-05T07:36:51.656Z,99942.98
2019-04-05T07:42:15.697Z,99945.72
2019-04-05T07:47:40.780Z,99956.94
2019-04-05T07:53:04.805Z,99962.80
2019-04-05T07:58:29.373Z,99965.63
2019-04-05T08:03:54.234Z,99963.70
2019-04-05T08:09:20.075Z,99961.75
2019-04-05T08:14:45.330Z,99960.45
2019-04-05T08:20:09.757Z,99966.05
2019-04-05T08:25:34.939Z,99965.02
2019-04-05T08:30:59.624Z,99966.27
2019-04-05T08:36:23.928Z,99969.12
2019-04-05T08:41:49.686Z,99977.33
2019-04-05T08:47:14.152Z,99975.41
2019-04-05T08:52:38.120Z,99978.27
2019-04-05T08:58:01.894Z,99968.27
2019-04-05T09:03:25.639Z,99974.91
2019-04-05T09:08:50.683Z,99992.66
2019-04-05T09:14:14.390Z,99985.44
2019-04-05T09:19:38.722Z,99994.38
2019-04-05T09:25:02.778Z,100005.47
2019-04-05T09:30:26.764Z,100007.13
2019-04-05T09:35:51.271Z,100017.00
2019-04-05T09:41:15.482Z,100015.21
2019-04-05T09:46:46.501Z,100018.41
2019-04-05T09:52:06.142Z,100026.35
2019-04-05T09:57:30.044Z,100023.64
2019-04-05T10:02:54.726Z,100031.83
2019-04-05T10:08:19.591Z,100045.11
2019-04-05T10:13:44.739Z,100046.55
2019-04-05T10:19:09.771Z,100054.74
2019-04-05T10:24:34.033Z,100059.97
2019-04-05T10:29:58.476Z,100056.08
2019-04-05T10:35:22.993Z,100068.27
2019-04-05T10:40:47.835Z,100058.95
2019-04-05T10:46:11.593Z,100062.74
2019-04-05T10:51:35.647Z,100057.66
2019-04-05T10:57:00.214Z,100069.61
2019-04-05T11:02:25.406Z,100068.52
2019-04-05T11:07:50.043Z,100069.25
2019-04-05T11:13:15.008Z,100074.72
2019-04-05T11:18:40.121Z,100078.86
2019-04-05T11:24:04.974Z,100082.56
2019-04-05T11:29:29.536Z,100080.19
2019-04-05T11:34:54.452Z,100087.61
2019-04-05T11:40:18.400Z,100074.84
2019-04-05T11:45:42.898Z,100086.18
2019-04-05T11:51:07.648Z,100091.29
2019-04-05T11:56:32.309Z,100088.19
2019-04-05T12:02:15.043Z,100081.22
2019-04-05T12:07:39.557Z,100084.06
2019-04-05T12:13:03.732Z,100076.77
2019-04-05T12:18:28.195Z,100073.30
2019-04-05T12:23:52.222Z,100080.09
2019-04-05T12:29:16.397Z,100079.70
2019-04-05T12:34:39.955Z,100074.69
2019-04-05T12:40:07.504Z,100070.52
2019-04-05T12:45:30.319Z,100065.99
2019-04-05T12:51:00.929Z,100051.36
2019-04-05T12:56:20.847Z,100063.47
2019-04-05T13:01:45.554Z,100063.59
2019-04-05T13:07:10.822Z,100062.38
2019-04-05T13:12:35.047Z,100052.98
2019-04-05T13:18:01.266Z,100054.82
2019-04-05T13:23:25.348Z,100059.27
2019-04-05T13:28:49.288Z,100050.75
2019-04-05T13:34:13.528Z,100045.84
2019-04-05T13:39:37.306Z,100040.74
2019-04-05T13:45:01.803Z,100041.89
2019-04-05T13:50:26.255Z,100042.41
2019-04-05T13:55:50.664Z,100039.66
2019-04-05T14:01:14.832Z,100040.25
2019-04-05T14:06:38.730Z,100034.27
2019-04-05T14:12:04.029Z,100041.48
2019-04-05T14:17:28.203Z,100047.98
2019-04-05T14:22:52.504Z,100030.75
2019-04-05T14:28:16.732Z,100032.58
2019-04-05T14:33:40.392Z,100033.84
2019-04-05T14:39:07.014Z,100027.14
2019-04-05T14:44:31.147Z,100016.16
2019-04-05T14:49:54.962Z,100017.38
2019-04-05T14:55:19.881Z,100012.48
2019-04-05T15:00:44.455Z,100022.82
2019-04-05T15:06:09.015Z,100028.79
2019-04-05T15:11:33.368Z,100028.65
2019-04-05T15:16:57.289Z,100029.52
2019-04-05T15:22:21.813Z,100026.17
2019-04-05T15:27:46.299Z,100016.58
2019-04-05T15:33:11.089Z,100010.22
2019-04-05T15:38:35.309Z,100012.30
2019-04-05T15:43:59.708Z,100017.06
2019-04-05T15:49:24.196Z,100014.80
2019-04-05T15:54:47.685Z,100009.66
2019-04-05T16:00:14.183Z,100013.30
2019-04-05T16:05:37.633Z,100001.69
2019-04-05T16:11:02.793Z,99992.87
2019-04-05T16:16:27.113Z,99990.35
2019-04-05T16:21:51.543Z,99998.36
2019-04-05T16:27:16.019Z,100011.81
2019-04-05T16:32:39.525Z,100007.63
2019-04-05T16:38:03.808Z,99999.13
2019-04-05T16:43:28.405Z,100017.14
2019-04-05T16:48:52.498Z,100015.39
2019-04-05T16:54:16.202Z,100018.22
2019-04-05T16:59:39.655Z,100028.98
2019-04-05T17:05:04.633Z,100026.02
2019-04-05T17:10:29.056Z,100023.67
2019-04-05T17:15:53.562Z,100029.55
2019-04-05T17:21:17.753Z,100018.91
2019-04-05T17:26:41.535Z,100003.83
2019-04-05T17:32:04.869Z,100010.69
2019-04-05T17:37:28.521Z,100000.36
2019-04-05T17:42:52.768Z,100010.68
2019-04-05T17:48:16.145Z,100010.88
2019-04-05T17:53:40.348Z,100017.87
2019-04-05T17:59:04.891Z,100036.67
2019-04-05T18:04:28.472Z,100042.80
2019-04-05T18:09:52.653Z,100037.19
2019-04-05T18:15:16.750Z,100057.63
2019-04-05T18:20:40.390Z,100061.95
2019-04-05T18:26:04.785Z,100057.95
2019-04-05T18:31:28.893Z,100052.61
2019-04-05T18:36:53.114Z,100054.82
2019-04-05T18:42:17.609Z,100052.90
2019-04-05T18:47:41.396Z,100052.94
2019-04-05T18:53:05.871Z,100050.22
2019-04-05T18:58:29.934Z,100052.85
2019-04-05T19:03:54.186Z,100059.77
2019-04-05T19:09:18.056Z,100059.77
2019-04-05T19:14:41.968Z,100060.80
2019-04-05T19:20:06.154Z,100060.59
2019-04-05T19:25:30.325Z,100051.66
2019-04-05T19:52:37.257Z,100040.97
2019-04-05T19:58:00.996Z,100035.23
2019-04-05T20:03:24.525Z,100037.71
2019-04-05T20:08:49.115Z,100044.92
2019-04-05T20:14:13.262Z,100055.62
2019-04-05T20:19:37.914Z,100048.55
2019-04-05T20:25:02.761Z,100044.80
2019-04-05T20:30:27.234Z,100053.01
2019-04-05T20:35:50.795Z,100050.11
2019-04-05T20:41:14.550Z,100058.14
2019-04-05T20:46:39.140Z,100054.14
2019-04-05T20:52:02.738Z,100060.44
2019-04-05T20:57:27.995Z,100060.97
2019-04-05T21:02:52.229Z,100061.43
2019-04-05T21:08:15.918Z,100057.58
2019-04-05T21:13:39.907Z,100058.84
2019-04-05T21:19:05.050Z,100063.95
2019-04-05T21:24:36.062Z,100067.91
2019-04-05T21:29:54.573Z,100074.70
2019-04-05T21:35:19.074Z,100072.83
2019-04-05T21:40:42.629Z,100079.16
2019-04-05T21:46:06.885Z,100085.45
2019-04-05T21:51:31.121Z,100089.27
2019-04-05T21:56:55.572Z,100091.47
2019-04-05T22:02:18.964Z,100087.55
2019-04-05T22:07:43.256Z,100087.94
2019-04-05T22:13:06.630Z,100092.12
2019-04-05T22:18:30.172Z,100097.36
2019-04-05T22:23:54.665Z,100096.80
2019-04-05T22:29:18.503Z,100095.11
2019-04-05T22:34:43.211Z,100094.94
2019-04-05T22:40:07.723Z,100085.84
2019-04-05T22:45:31.618Z,100081.08
2019-04-05T22:50:55.686Z,100084.16
2019-04-05T22:56:19.692Z,100089.35
2019-04-05T23:01:44.167Z,100083.40
2019-04-05T23:07:08.710Z,100084.19
2019-04-05T23:12:32.209Z,100091.87
2019-04-05T23:17:57.079Z,100102.47
2019-04-05T23:23:21.437Z,100092.75
2019-04-05T23:28:45.920Z,100097.69
2019-04-05T23:34:10.216Z,100099.34
2019-04-05T23:39:33.836Z,100097.45
2019-04-05T23:44:58.521Z,100102.88
2019-04-05T23:50:22.117Z,100104.09
2019-04-05T23:55:45.771Z,100096.77
